Terminal Aerodrome Forecast
Issued by NWS

Home | Current Version | Previous Version | Text Only | Print | Product List | Glossary On
Versions: 1 2 3 4 5 6 7 8 9 10 11 12 13
000
FTPA31 PHFO 301700
TAFMKK
TAF
PHMK 301721Z 3018/3118 05007KT P6SM VCSH FEW025 SCT045
     FM302000 04018G28KT P6SM FEW025 SCT045
     FM310500 04013G22KT P6SM FEW025 SCT045=

USA.gov is the U.S. government's official web portal to all federal, state and local government web resources and services.